sensor_id;sensor_type;location;lat;lon;timestamp;P1;durP1;ratioP1;P2;durP2;ratioP2
7719;SDS011;3902;49.474;8.616;2024-03-29T00:01:15;1.90;;;1.20;;
7719;SDS011;3902;49.474;8.616;2024-03-29T00:03:41;1.40;;;1.30;;
7719;SDS011;3902;49.474;8.616;2024-03-29T00:06:07;1.70;;;1.20;;
7719;SDS011;3902;49.474;8.616;2024-03-29T00:08:32;3.73;;;1.63;;
7719;SDS011;3902;49.474;8.616;2024-03-29T00:10:58;1.50;;;1.40;;
7719;SDS011;3902;49.474;8.616;2024-03-29T00:13:23;2.53;;;1.30;;
7719;SDS011;3902;49.474;8.616;2024-03-29T00:15:49;2.47;;;1.60;;
7719;SDS011;3902;49.474;8.616;2024-03-29T00:18:14;1.90;;;1.40;;
7719;SDS011;3902;49.474;8.616;2024-03-29T00:20:40;2.17;;;1.47;;
7719;SDS011;3902;49.474;8.616;2024-03-29T00:23:05;1.37;;;1.27;;
7719;SDS011;3902;49.474;8.616;2024-03-29T00:25:31;2.83;;;1.37;;
7719;SDS011;3902;49.474;8.616;2024-03-29T00:27:56;1.93;;;1.37;;
7719;SDS011;3902;49.474;8.616;2024-03-29T00:30:22;2.30;;;1.50;;
7719;SDS011;3902;49.474;8.616;2024-03-29T00:32:47;2.03;;;1.30;;
7719;SDS011;3902;49.474;8.616;2024-03-29T00:35:15;2.00;;;1.30;;
7719;SDS011;3902;49.474;8.616;2024-03-29T00:37:40;4.70;;;1.50;;
7719;SDS011;3902;49.474;8.616;2024-03-29T00:40:06;2.97;;;1.30;;
7719;SDS011;3902;49.474;8.616;2024-03-29T00:42:32;1.20;;;1.10;;
7719;SDS011;3902;49.474;8.616;2024-03-29T00:44:57;1.93;;;1.40;;
7719;SDS011;3902;49.474;8.616;2024-03-29T00:47:23;1.80;;;1.10;;
7719;SDS011;3902;49.474;8.616;2024-03-29T00:49:48;1.80;;;1.10;;
7719;SDS011;3902;49.474;8.616;2024-03-29T00:52:14;1.47;;;1.27;;
7719;SDS011;3902;49.474;8.616;2024-03-29T00:54:39;2.47;;;1.23;;
7719;SDS011;3902;49.474;8.616;2024-03-29T00:57:04;1.73;;;1.30;;
7719;SDS011;3902;49.474;8.616;2024-03-29T00:59:31;2.00;;;1.47;;
7719;SDS011;3902;49.474;8.616;2024-03-29T01:01:57;2.30;;;1.37;;
7719;SDS011;3902;49.474;8.616;2024-03-29T01:04:22;2.17;;;1.20;;
7719;SDS011;3902;49.474;8.616;2024-03-29T01:06:48;2.30;;;1.53;;
7719;SDS011;3902;49.474;8.616;2024-03-29T01:09:13;2.73;;;1.30;;
7719;SDS011;3902;49.474;8.616;2024-03-29T01:11:39;2.47;;;1.30;;
7719;SDS011;3902;49.474;8.616;2024-03-29T01:14:05;1.67;;;1.30;;
7719;SDS011;3902;49.474;8.616;2024-03-29T01:16:32;2.47;;;1.23;;
7719;SDS011;3902;49.474;8.616;2024-03-29T01:18:58;2.13;;;1.40;;
7719;SDS011;3902;49.474;8.616;2024-03-29T01:21:23;2.07;;;1.33;;
7719;SDS011;3902;49.474;8.616;2024-03-29T01:23:51;2.10;;;1.50;;
7719;SDS011;3902;49.474;8.616;2024-03-29T01:26:17;1.90;;;1.27;;
7719;SDS011;3902;49.474;8.616;2024-03-29T01:28:43;2.13;;;1.40;;
7719;SDS011;3902;49.474;8.616;2024-03-29T01:31:09;1.60;;;1.03;;
7719;SDS011;3902;49.474;8.616;2024-03-29T01:33:34;2.47;;;1.30;;
7719;SDS011;3902;49.474;8.616;2024-03-29T01:36:05;2.63;;;1.30;;
7719;SDS011;3902;49.474;8.616;2024-03-29T01:38:31;1.40;;;1.17;;
7719;SDS011;3902;49.474;8.616;2024-03-29T01:40:57;2.03;;;1.47;;
7719;SDS011;3902;49.474;8.616;2024-03-29T01:43:23;1.23;;;1.10;;
7719;SDS011;3902;49.474;8.616;2024-03-29T01:45:49;3.20;;;1.60;;
7719;SDS011;3902;49.474;8.616;2024-03-29T01:48:18;2.30;;;1.20;;
7719;SDS011;3902;49.474;8.616;2024-03-29T01:50:45;1.53;;;1.23;;
7719;SDS011;3902;49.474;8.616;2024-03-29T01:53:12;1.60;;;1.30;;
7719;SDS011;3902;49.474;8.616;2024-03-29T01:55:40;1.20;;;1.10;;
7719;SDS011;3902;49.474;8.616;2024-03-29T01:58:06;3.83;;;1.40;;
7719;SDS011;3902;49.474;8.616;2024-03-29T02:00:34;2.30;;;1.40;;
7719;SDS011;3902;49.474;8.616;2024-03-29T02:03:04;3.80;;;1.73;;
7719;SDS011;3902;49.474;8.616;2024-03-29T02:05:34;4.93;;;1.40;;
7719;SDS011;3902;49.474;8.616;2024-03-29T02:08:01;3.10;;;1.60;;
7719;SDS011;3902;49.474;8.616;2024-03-29T02:10:28;2.67;;;1.50;;
7719;SDS011;3902;49.474;8.616;2024-03-29T02:12:53;2.40;;;1.30;;
7719;SDS011;3902;49.474;8.616;2024-03-29T02:15:18;2.50;;;1.70;;
7719;SDS011;3902;49.474;8.616;2024-03-29T02:17:44;1.10;;;1.00;;
7719;SDS011;3902;49.474;8.616;2024-03-29T02:20:10;2.13;;;1.50;;
7719;SDS011;3902;49.474;8.616;2024-03-29T02:22:40;2.33;;;1.30;;
7719;SDS011;3902;49.474;8.616;2024-03-29T02:25:11;3.63;;;1.40;;
7719;SDS011;3902;49.474;8.616;2024-03-29T02:27:37;4.67;;;1.63;;
7719;SDS011;3902;49.474;8.616;2024-03-29T02:30:04;1.67;;;1.57;;
7719;SDS011;3902;49.474;8.616;2024-03-29T02:32:30;1.37;;;1.20;;
7719;SDS011;3902;49.474;8.616;2024-03-29T02:34:55;1.87;;;1.30;;
7719;SDS011;3902;49.474;8.616;2024-03-29T02:37:20;1.73;;;1.37;;
7719;SDS011;3902;49.474;8.616;2024-03-29T02:39:46;1.50;;;1.40;;
7719;SDS011;3902;49.474;8.616;2024-03-29T02:42:11;1.87;;;1.20;;
7719;SDS011;3902;49.474;8.616;2024-03-29T02:44:37;1.40;;;1.20;;
7719;SDS011;3902;49.474;8.616;2024-03-29T02:47:02;1.80;;;1.20;;
7719;SDS011;3902;49.474;8.616;2024-03-29T02:49:28;1.67;;;1.30;;
7719;SDS011;3902;49.474;8.616;2024-03-29T02:51:54;1.57;;;1.30;;
7719;SDS011;3902;49.474;8.616;2024-03-29T02:54:19;1.50;;;1.37;;
7719;SDS011;3902;49.474;8.616;2024-03-29T02:56:45;3.67;;;1.27;;
7719;SDS011;3902;49.474;8.616;2024-03-29T02:59:10;1.50;;;1.23;;
7719;SDS011;3902;49.474;8.616;2024-03-29T03:01:36;1.33;;;1.10;;
7719;SDS011;3902;49.474;8.616;2024-03-29T03:04:02;1.30;;;1.10;;
7719;SDS011;3902;49.474;8.616;2024-03-29T03:06:28;1.13;;;1.03;;
7719;SDS011;3902;49.474;8.616;2024-03-29T03:08:53;1.30;;;1.20;;
7719;SDS011;3902;49.474;8.616;2024-03-29T03:11:37;1.23;;;1.00;;
7719;SDS011;3902;49.474;8.616;2024-03-29T03:14:03;1.33;;;1.23;;
7719;SDS011;3902;49.474;8.616;2024-03-29T03:16:28;1.20;;;1.10;;
7719;SDS011;3902;49.474;8.616;2024-03-29T03:18:54;1.47;;;1.00;;
7719;SDS011;3902;49.474;8.616;2024-03-29T03:21:19;1.60;;;1.20;;
7719;SDS011;3902;49.474;8.616;2024-03-29T03:23:45;2.67;;;1.23;;
7719;SDS011;3902;49.474;8.616;2024-03-29T03:26:11;2.30;;;0.90;;
7719;SDS011;3902;49.474;8.616;2024-03-29T03:28:36;1.33;;;1.23;;
7719;SDS011;3902;49.474;8.616;2024-03-29T03:31:02;1.33;;;1.00;;
7719;SDS011;3902;49.474;8.616;2024-03-29T03:33:28;1.37;;;1.10;;
7719;SDS011;3902;49.474;8.616;2024-03-29T03:35:54;2.10;;;1.10;;
7719;SDS011;3902;49.474;8.616;2024-03-29T03:38:19;1.73;;;1.27;;
7719;SDS011;3902;49.474;8.616;2024-03-29T03:40:45;1.43;;;1.00;;
7719;SDS011;3902;49.474;8.616;2024-03-29T03:43:10;1.10;;;1.00;;
7719;SDS011;3902;49.474;8.616;2024-03-29T03:45:39;2.80;;;1.10;;
7719;SDS011;3902;49.474;8.616;2024-03-29T03:48:06;1.70;;;1.03;;
7719;SDS011;3902;49.474;8.616;2024-03-29T03:50:33;1.00;;;0.90;;
7719;SDS011;3902;49.474;8.616;2024-03-29T03:52:59;1.87;;;1.17;;
7719;SDS011;3902;49.474;8.616;2024-03-29T03:55:25;1.47;;;1.30;;
7719;SDS011;3902;49.474;8.616;2024-03-29T03:57:51;1.30;;;1.20;;
7719;SDS011;3902;49.474;8.616;2024-03-29T04:00:18;1.00;;;0.90;;
7719;SDS011;3902;49.474;8.616;2024-03-29T04:02:48;1.27;;;1.17;;
7719;SDS011;3902;49.474;8.616;2024-03-29T04:05:15;1.40;;;1.13;;
7719;SDS011;3902;49.474;8.616;2024-03-29T04:07:44;1.43;;;1.10;;
7719;SDS011;3902;49.474;8.616;2024-03-29T04:10:10;1.10;;;1.00;;
7719;SDS011;3902;49.474;8.616;2024-03-29T04:12:36;1.40;;;1.20;;
7719;SDS011;3902;49.474;8.616;2024-03-29T04:15:01;1.10;;;1.00;;
7719;SDS011;3902;49.474;8.616;2024-03-29T04:17:28;1.23;;;1.10;;
7719;SDS011;3902;49.474;8.616;2024-03-29T04:19:57;2.57;;;0.80;;
7719;SDS011;3902;49.474;8.616;2024-03-29T04:22:23;2.87;;;1.20;;
7719;SDS011;3902;49.474;8.616;2024-03-29T04:24:49;1.33;;;1.07;;
7719;SDS011;3902;49.474;8.616;2024-03-29T04:27:15;1.00;;;0.90;;
7719;SDS011;3902;49.474;8.616;2024-03-29T04:29:40;1.40;;;0.90;;
7719;SDS011;3902;49.474;8.616;2024-03-29T04:32:06;1.03;;;0.93;;
7719;SDS011;3902;49.474;8.616;2024-03-29T04:34:31;1.33;;;1.10;;
7719;SDS011;3902;49.474;8.616;2024-03-29T04:36:58;1.93;;;1.20;;
7719;SDS011;3902;49.474;8.616;2024-03-29T04:39:23;1.53;;;1.00;;
7719;SDS011;3902;49.474;8.616;2024-03-29T04:41:49;1.10;;;1.00;;
7719;SDS011;3902;49.474;8.616;2024-03-29T04:44:22;3.77;;;1.43;;
7719;SDS011;3902;49.474;8.616;2024-03-29T04:46:49;1.23;;;1.00;;
7719;SDS011;3902;49.474;8.616;2024-03-29T04:49:15;1.23;;;0.83;;
7719;SDS011;3902;49.474;8.616;2024-03-29T04:51:47;2.90;;;1.10;;
7719;SDS011;3902;49.474;8.616;2024-03-29T04:54:13;1.50;;;1.00;;
7719;SDS011;3902;49.474;8.616;2024-03-29T04:56:41;1.87;;;1.00;;
7719;SDS011;3902;49.474;8.616;2024-03-29T04:59:06;0.87;;;0.87;;
7719;SDS011;3902;49.474;8.616;2024-03-29T05:01:32;1.47;;;1.13;;
7719;SDS011;3902;49.474;8.616;2024-03-29T05:04:00;1.10;;;0.80;;
7719;SDS011;3902;49.474;8.616;2024-03-29T05:06:25;1.70;;;1.00;;
7719;SDS011;3902;49.474;8.616;2024-03-29T05:08:51;1.40;;;0.80;;
7719;SDS011;3902;49.474;8.616;2024-03-29T05:11:17;1.20;;;0.90;;
7719;SDS011;3902;49.474;8.616;2024-03-29T05:13:44;1.23;;;0.90;;
7719;SDS011;3902;49.474;8.616;2024-03-29T05:16:09;1.47;;;0.97;;
7719;SDS011;3902;49.474;8.616;2024-03-29T05:18:35;1.20;;;1.00;;
7719;SDS011;3902;49.474;8.616;2024-03-29T05:21:00;1.53;;;1.00;;
7719;SDS011;3902;49.474;8.616;2024-03-29T05:23:26;0.87;;;0.80;;
7719;SDS011;3902;49.474;8.616;2024-03-29T05:25:52;1.20;;;0.87;;
7719;SDS011;3902;49.474;8.616;2024-03-29T05:28:17;1.03;;;0.80;;
7719;SDS011;3902;49.474;8.616;2024-03-29T05:30:43;1.33;;;0.97;;
7719;SDS011;3902;49.474;8.616;2024-03-29T05:33:09;1.00;;;0.90;;
7719;SDS011;3902;49.474;8.616;2024-03-29T05:35:34;1.10;;;1.00;;
7719;SDS011;3902;49.474;8.616;2024-03-29T05:38:00;1.20;;;1.00;;
7719;SDS011;3902;49.474;8.616;2024-03-29T05:40:25;2.30;;;1.10;;
7719;SDS011;3902;49.474;8.616;2024-03-29T05:42:52;1.40;;;1.20;;
7719;SDS011;3902;49.474;8.616;2024-03-29T05:45:22;2.03;;;1.03;;
7719;SDS011;3902;49.474;8.616;2024-03-29T05:47:55;1.33;;;0.97;;
7719;SDS011;3902;49.474;8.616;2024-03-29T05:50:21;1.33;;;0.90;;
7719;SDS011;3902;49.474;8.616;2024-03-29T05:52:48;1.20;;;1.10;;
7719;SDS011;3902;49.474;8.616;2024-03-29T05:55:14;1.80;;;1.07;;
7719;SDS011;3902;49.474;8.616;2024-03-29T05:57:39;1.20;;;0.80;;
7719;SDS011;3902;49.474;8.616;2024-03-29T06:00:10;0.97;;;0.87;;
7719;SDS011;3902;49.474;8.616;2024-03-29T06:02:36;1.33;;;0.90;;
7719;SDS011;3902;49.474;8.616;2024-03-29T06:05:02;1.50;;;1.00;;
7719;SDS011;3902;49.474;8.616;2024-03-29T06:07:29;1.00;;;0.90;;
7719;SDS011;3902;49.474;8.616;2024-03-29T06:09:57;1.53;;;1.00;;
7719;SDS011;3902;49.474;8.616;2024-03-29T06:12:24;1.00;;;0.90;;
7719;SDS011;3902;49.474;8.616;2024-03-29T06:14:49;1.20;;;1.10;;
7719;SDS011;3902;49.474;8.616;2024-03-29T06:17:33;1.63;;;1.20;;
7719;SDS011;3902;49.474;8.616;2024-03-29T06:20:00;1.30;;;1.20;;
7719;SDS011;3902;49.474;8.616;2024-03-29T06:22:28;1.60;;;1.03;;
7719;SDS011;3902;49.474;8.616;2024-03-29T06:24:55;1.10;;;1.00;;
7719;SDS011;3902;49.474;8.616;2024-03-29T06:27:24;3.47;;;1.10;;
7719;SDS011;3902;49.474;8.616;2024-03-29T06:29:49;1.13;;;1.00;;
7719;SDS011;3902;49.474;8.616;2024-03-29T06:32:15;1.10;;;1.00;;
7719;SDS011;3902;49.474;8.616;2024-03-29T06:34:47;1.77;;;1.17;;
7719;SDS011;3902;49.474;8.616;2024-03-29T06:37:12;1.27;;;0.90;;
7719;SDS011;3902;49.474;8.616;2024-03-29T06:39:38;1.40;;;1.10;;
7719;SDS011;3902;49.474;8.616;2024-03-29T06:42:04;1.30;;;1.00;;
7719;SDS011;3902;49.474;8.616;2024-03-29T06:44:32;1.50;;;1.30;;
7719;SDS011;3902;49.474;8.616;2024-03-29T06:46:58;1.00;;;0.80;;
7719;SDS011;3902;49.474;8.616;2024-03-29T06:49:23;1.70;;;1.00;;
7719;SDS011;3902;49.474;8.616;2024-03-29T06:51:49;1.53;;;1.10;;
7719;SDS011;3902;49.474;8.616;2024-03-29T06:54:14;1.10;;;1.00;;
7719;SDS011;3902;49.474;8.616;2024-03-29T06:56:40;1.80;;;1.07;;
7719;SDS011;3902;49.474;8.616;2024-03-29T06:59:05;1.40;;;1.00;;
7719;SDS011;3902;49.474;8.616;2024-03-29T07:01:31;1.00;;;0.90;;
7719;SDS011;3902;49.474;8.616;2024-03-29T07:03:56;1.00;;;0.90;;
7719;SDS011;3902;49.474;8.616;2024-03-29T07:06:22;1.10;;;1.00;;
7719;SDS011;3902;49.474;8.616;2024-03-29T07:08:48;1.70;;;1.10;;
7719;SDS011;3902;49.474;8.616;2024-03-29T07:11:13;1.47;;;1.00;;
7719;SDS011;3902;49.474;8.616;2024-03-29T07:13:39;1.13;;;1.00;;
7719;SDS011;3902;49.474;8.616;2024-03-29T07:16:04;1.73;;;1.00;;
7719;SDS011;3902;49.474;8.616;2024-03-29T07:18:31;1.30;;;1.20;;
7719;SDS011;3902;49.474;8.616;2024-03-29T07:20:57;1.20;;;1.00;;
7719;SDS011;3902;49.474;8.616;2024-03-29T07:23:23;1.23;;;1.07;;
7719;SDS011;3902;49.474;8.616;2024-03-29T07:25:58;1.80;;;1.03;;
7719;SDS011;3902;49.474;8.616;2024-03-29T07:28:25;1.00;;;0.90;;
7719;SDS011;3902;49.474;8.616;2024-03-29T07:30:51;1.30;;;1.13;;
7719;SDS011;3902;49.474;8.616;2024-03-29T07:33:18;1.27;;;1.17;;
7719;SDS011;3902;49.474;8.616;2024-03-29T07:35:46;1.10;;;1.00;;
7719;SDS011;3902;49.474;8.616;2024-03-29T07:38:12;1.67;;;1.00;;
7719;SDS011;3902;49.474;8.616;2024-03-29T07:40:40;1.20;;;1.10;;
7719;SDS011;3902;49.474;8.616;2024-03-29T07:43:06;1.23;;;1.00;;
7719;SDS011;3902;49.474;8.616;2024-03-29T07:45:31;1.90;;;1.17;;
7719;SDS011;3902;49.474;8.616;2024-03-29T07:47:57;1.30;;;1.00;;
7719;SDS011;3902;49.474;8.616;2024-03-29T07:50:23;0.97;;;0.90;;
7719;SDS011;3902;49.474;8.616;2024-03-29T07:52:49;1.80;;;1.40;;
7719;SDS011;3902;49.474;8.616;2024-03-29T07:55:15;1.80;;;1.20;;
7719;SDS011;3902;49.474;8.616;2024-03-29T07:57:40;1.10;;;1.00;;
7719;SDS011;3902;49.474;8.616;2024-03-29T08:00:06;1.17;;;1.07;;
7719;SDS011;3902;49.474;8.616;2024-03-29T08:02:32;1.00;;;0.90;;
7719;SDS011;3902;49.474;8.616;2024-03-29T08:04:58;1.47;;;1.03;;
7719;SDS011;3902;49.474;8.616;2024-03-29T08:07:24;1.20;;;1.00;;
7719;SDS011;3902;49.474;8.616;2024-03-29T08:09:49;2.30;;;1.20;;
7719;SDS011;3902;49.474;8.616;2024-03-29T08:12:15;1.20;;;1.10;;
7719;SDS011;3902;49.474;8.616;2024-03-29T08:14:41;1.30;;;0.97;;
7719;SDS011;3902;49.474;8.616;2024-03-29T08:17:07;1.17;;;1.00;;
7719;SDS011;3902;49.474;8.616;2024-03-29T08:19:34;1.07;;;0.97;;
7719;SDS011;3902;49.474;8.616;2024-03-29T08:22:00;1.77;;;1.10;;
7719;SDS011;3902;49.474;8.616;2024-03-29T08:24:27;1.10;;;0.97;;
7719;SDS011;3902;49.474;8.616;2024-03-29T08:26:52;1.37;;;1.00;;
7719;SDS011;3902;49.474;8.616;2024-03-29T08:29:18;1.20;;;1.10;;
7719;SDS011;3902;49.474;8.616;2024-03-29T08:31:43;1.10;;;1.00;;
7719;SDS011;3902;49.474;8.616;2024-03-29T08:34:09;1.30;;;1.20;;
7719;SDS011;3902;49.474;8.616;2024-03-29T08:36:38;1.30;;;1.07;;
7719;SDS011;3902;49.474;8.616;2024-03-29T08:39:04;1.10;;;1.00;;
7719;SDS011;3902;49.474;8.616;2024-03-29T08:41:29;4.90;;;1.30;;
7719;SDS011;3902;49.474;8.616;2024-03-29T08:43:55;1.43;;;1.03;;
7719;SDS011;3902;49.474;8.616;2024-03-29T08:46:20;1.17;;;1.07;;
7719;SDS011;3902;49.474;8.616;2024-03-29T08:48:47;1.80;;;1.10;;
7719;SDS011;3902;49.474;8.616;2024-03-29T08:51:13;1.23;;;1.13;;
7719;SDS011;3902;49.474;8.616;2024-03-29T08:53:39;2.00;;;1.33;;
7719;SDS011;3902;49.474;8.616;2024-03-29T08:56:05;1.60;;;1.10;;
7719;SDS011;3902;49.474;8.616;2024-03-29T08:58:31;2.20;;;1.20;;
7719;SDS011;3902;49.474;8.616;2024-03-29T09:00:56;1.50;;;1.23;;
7719;SDS011;3902;49.474;8.616;2024-03-29T09:03:22;1.50;;;1.30;;
7719;SDS011;3902;49.474;8.616;2024-03-29T09:05:49;1.57;;;1.10;;
7719;SDS011;3902;49.474;8.616;2024-03-29T09:08:15;2.33;;;1.27;;
7719;SDS011;3902;49.474;8.616;2024-03-29T09:10:42;2.27;;;1.60;;
7719;SDS011;3902;49.474;8.616;2024-03-29T09:13:07;1.40;;;1.30;;
7719;SDS011;3902;49.474;8.616;2024-03-29T09:15:34;2.00;;;1.50;;
7719;SDS011;3902;49.474;8.616;2024-03-29T09:18:00;1.70;;;1.27;;
7719;SDS011;3902;49.474;8.616;2024-03-29T09:20:36;2.50;;;1.23;;
7719;SDS011;3902;49.474;8.616;2024-03-29T09:23:02;2.27;;;1.53;;
7719;SDS011;3902;49.474;8.616;2024-03-29T09:25:28;1.20;;;1.10;;
7719;SDS011;3902;49.474;8.616;2024-03-29T09:27:55;1.33;;;1.20;;
7719;SDS011;3902;49.474;8.616;2024-03-29T09:30:20;3.20;;;1.20;;
7719;SDS011;3902;49.474;8.616;2024-03-29T09:32:47;1.97;;;1.20;;
7719;SDS011;3902;49.474;8.616;2024-03-29T09:35:15;1.60;;;1.50;;
7719;SDS011;3902;49.474;8.616;2024-03-29T09:37:40;1.50;;;1.30;;
7719;SDS011;3902;49.474;8.616;2024-03-29T09:40:07;1.83;;;1.57;;
7719;SDS011;3902;49.474;8.616;2024-03-29T09:42:33;1.30;;;1.20;;
7719;SDS011;3902;49.474;8.616;2024-03-29T09:45:02;1.80;;;1.37;;
7719;SDS011;3902;49.474;8.616;2024-03-29T09:47:33;1.50;;;1.40;;
7719;SDS011;3902;49.474;8.616;2024-03-29T09:50:02;2.27;;;1.50;;
7719;SDS011;3902;49.474;8.616;2024-03-29T09:52:31;3.50;;;1.43;;
7719;SDS011;3902;49.474;8.616;2024-03-29T09:54:57;1.67;;;1.43;;
7719;SDS011;3902;49.474;8.616;2024-03-29T09:57:24;1.53;;;1.40;;
7719;SDS011;3902;49.474;8.616;2024-03-29T09:59:54;2.57;;;1.50;;
7719;SDS011;3902;49.474;8.616;2024-03-29T10:02:20;3.80;;;1.50;;
7719;SDS011;3902;49.474;8.616;2024-03-29T10:04:48;2.97;;;2.37;;
7719;SDS011;3902;49.474;8.616;2024-03-29T10:07:15;4.17;;;1.93;;
7719;SDS011;3902;49.474;8.616;2024-03-29T10:09:42;4.70;;;1.70;;
7719;SDS011;3902;49.474;8.616;2024-03-29T10:12:09;5.00;;;1.90;;
7719;SDS011;3902;49.474;8.616;2024-03-29T10:14:44;2.20;;;1.73;;
7719;SDS011;3902;49.474;8.616;2024-03-29T10:17:15;3.83;;;1.80;;
7719;SDS011;3902;49.474;8.616;2024-03-29T10:19:41;2.13;;;1.70;;
7719;SDS011;3902;49.474;8.616;2024-03-29T10:22:07;2.60;;;2.37;;
7719;SDS011;3902;49.474;8.616;2024-03-29T10:24:33;2.80;;;2.10;;
7719;SDS011;3902;49.474;8.616;2024-03-29T10:26:59;1.70;;;1.60;;
7719;SDS011;3902;49.474;8.616;2024-03-29T10:29:28;2.30;;;1.60;;
7719;SDS011;3902;49.474;8.616;2024-03-29T10:31:55;2.30;;;2.03;;
7719;SDS011;3902;49.474;8.616;2024-03-29T10:34:21;1.90;;;1.70;;
7719;SDS011;3902;49.474;8.616;2024-03-29T10:36:48;1.93;;;1.53;;
7719;SDS011;3902;49.474;8.616;2024-03-29T10:39:15;1.90;;;1.60;;
7719;SDS011;3902;49.474;8.616;2024-03-29T10:41:42;1.70;;;1.57;;
7719;SDS011;3902;49.474;8.616;2024-03-29T10:44:09;1.77;;;1.50;;
7719;SDS011;3902;49.474;8.616;2024-03-29T10:46:39;1.97;;;1.60;;
7719;SDS011;3902;49.474;8.616;2024-03-29T10:49:06;1.97;;;1.77;;
7719;SDS011;3902;49.474;8.616;2024-03-29T10:51:39;1.67;;;1.40;;
7719;SDS011;3902;49.474;8.616;2024-03-29T10:54:09;1.97;;;1.60;;
7719;SDS011;3902;49.474;8.616;2024-03-29T10:56:36;1.90;;;1.70;;
7719;SDS011;3902;49.474;8.616;2024-03-29T10:59:05;2.27;;;1.70;;
7719;SDS011;3902;49.474;8.616;2024-03-29T11:01:38;1.40;;;1.30;;
7719;SDS011;3902;49.474;8.616;2024-03-29T11:04:12;1.50;;;1.40;;
7719;SDS011;3902;49.474;8.616;2024-03-29T11:06:42;3.40;;;1.20;;
7719;SDS011;3902;49.474;8.616;2024-03-29T11:09:09;1.37;;;1.27;;
7719;SDS011;3902;49.474;8.616;2024-03-29T11:11:38;2.23;;;1.30;;
7719;SDS011;3902;49.474;8.616;2024-03-29T11:14:10;1.23;;;1.10;;
7719;SDS011;3902;49.474;8.616;2024-03-29T11:16:41;1.47;;;1.20;;
7719;SDS011;3902;49.474;8.616;2024-03-29T11:19:10;1.43;;;1.30;;
7719;SDS011;3902;49.474;8.616;2024-03-29T11:21:38;1.60;;;1.30;;
7719;SDS011;3902;49.474;8.616;2024-03-29T11:24:07;1.50;;;1.40;;
7719;SDS011;3902;49.474;8.616;2024-03-29T11:26:34;1.70;;;1.20;;
7719;SDS011;3902;49.474;8.616;2024-03-29T11:29:00;2.30;;;1.60;;
7719;SDS011;3902;49.474;8.616;2024-03-29T11:31:27;1.40;;;1.10;;
7719;SDS011;3902;49.474;8.616;2024-03-29T11:33:52;1.77;;;1.60;;
7719;SDS011;3902;49.474;8.616;2024-03-29T11:36:20;1.47;;;1.10;;
7719;SDS011;3902;49.474;8.616;2024-03-29T11:38:50;2.03;;;1.50;;
7719;SDS011;3902;49.474;8.616;2024-03-29T11:41:25;1.97;;;1.50;;
7719;SDS011;3902;49.474;8.616;2024-03-29T11:43:52;1.33;;;1.03;;
7719;SDS011;3902;49.474;8.616;2024-03-29T11:46:19;2.30;;;1.50;;
7719;SDS011;3902;49.474;8.616;2024-03-29T11:48:45;1.77;;;1.40;;
7719;SDS011;3902;49.474;8.616;2024-03-29T11:51:13;2.10;;;1.33;;
7719;SDS011;3902;49.474;8.616;2024-03-29T11:53:40;1.20;;;1.10;;
7719;SDS011;3902;49.474;8.616;2024-03-29T11:56:07;1.37;;;1.20;;
7719;SDS011;3902;49.474;8.616;2024-03-29T11:58:33;1.40;;;1.30;;
7719;SDS011;3902;49.474;8.616;2024-03-29T12:00:59;2.07;;;1.60;;
7719;SDS011;3902;49.474;8.616;2024-03-29T12:03:26;1.40;;;1.20;;
7719;SDS011;3902;49.474;8.616;2024-03-29T12:05:53;1.53;;;1.30;;
7719;SDS011;3902;49.474;8.616;2024-03-29T12:08:23;1.23;;;1.13;;
7719;SDS011;3902;49.474;8.616;2024-03-29T12:10:52;1.33;;;1.23;;
7719;SDS011;3902;49.474;8.616;2024-03-29T12:13:17;1.33;;;1.20;;
7719;SDS011;3902;49.474;8.616;2024-03-29T12:15:43;2.23;;;1.20;;
7719;SDS011;3902;49.474;8.616;2024-03-29T12:18:09;1.40;;;1.30;;
7719;SDS011;3902;49.474;8.616;2024-03-29T12:20:36;1.77;;;1.40;;
7719;SDS011;3902;49.474;8.616;2024-03-29T12:23:04;1.33;;;1.23;;
7719;SDS011;3902;49.474;8.616;2024-03-29T12:25:31;1.80;;;1.60;;
7719;SDS011;3902;49.474;8.616;2024-03-29T12:27:58;1.73;;;1.53;;
7719;SDS011;3902;49.474;8.616;2024-03-29T12:30:25;1.83;;;1.73;;
7719;SDS011;3902;49.474;8.616;2024-03-29T12:33:01;1.70;;;1.57;;
7719;SDS011;3902;49.474;8.616;2024-03-29T12:35:35;3.43;;;1.70;;
7719;SDS011;3902;49.474;8.616;2024-03-29T12:38:02;3.50;;;1.60;;
7719;SDS011;3902;49.474;8.616;2024-03-29T12:40:29;3.00;;;1.70;;
7719;SDS011;3902;49.474;8.616;2024-03-29T12:43:02;2.50;;;2.30;;
7719;SDS011;3902;49.474;8.616;2024-03-29T12:45:30;3.23;;;2.10;;
7719;SDS011;3902;49.474;8.616;2024-03-29T12:47:56;3.80;;;2.30;;
7719;SDS011;3902;49.474;8.616;2024-03-29T12:50:28;2.33;;;1.93;;
7719;SDS011;3902;49.474;8.616;2024-03-29T12:52:56;1.80;;;1.70;;
7719;SDS011;3902;49.474;8.616;2024-03-29T12:55:31;2.87;;;2.00;;
7719;SDS011;3902;49.474;8.616;2024-03-29T12:58:00;1.80;;;1.70;;
7719;SDS011;3902;49.474;8.616;2024-03-29T13:00:26;3.93;;;1.63;;
7719;SDS011;3902;49.474;8.616;2024-03-29T13:02:52;2.13;;;1.60;;
7719;SDS011;3902;49.474;8.616;2024-03-29T13:05:18;1.90;;;1.70;;
7719;SDS011;3902;49.474;8.616;2024-03-29T13:07:43;3.03;;;1.83;;
7719;SDS011;3902;49.474;8.616;2024-03-29T13:10:09;4.03;;;1.70;;
7719;SDS011;3902;49.474;8.616;2024-03-29T13:12:38;2.00;;;1.80;;
7719;SDS011;3902;49.474;8.616;2024-03-29T13:15:15;3.10;;;1.87;;
7719;SDS011;3902;49.474;8.616;2024-03-29T13:17:42;1.63;;;1.53;;
7719;SDS011;3902;49.474;8.616;2024-03-29T13:20:08;1.73;;;1.60;;
7719;SDS011;3902;49.474;8.616;2024-03-29T13:22:35;2.00;;;1.80;;
7719;SDS011;3902;49.474;8.616;2024-03-29T13:25:00;2.07;;;1.87;;
7719;SDS011;3902;49.474;8.616;2024-03-29T13:27:26;2.20;;;1.80;;
7719;SDS011;3902;49.474;8.616;2024-03-29T13:29:51;2.50;;;2.30;;
7719;SDS011;3902;49.474;8.616;2024-03-29T13:32:17;2.33;;;2.10;;
7719;SDS011;3902;49.474;8.616;2024-03-29T13:34:43;2.27;;;2.03;;
7719;SDS011;3902;49.474;8.616;2024-03-29T13:37:09;2.30;;;2.10;;
7719;SDS011;3902;49.474;8.616;2024-03-29T13:39:34;3.57;;;2.30;;
7719;SDS011;3902;49.474;8.616;2024-03-29T13:42:00;2.93;;;2.23;;
7719;SDS011;3902;49.474;8.616;2024-03-29T13:44:25;2.50;;;2.27;;
7719;SDS011;3902;49.474;8.616;2024-03-29T13:46:51;2.40;;;2.20;;
7719;SDS011;3902;49.474;8.616;2024-03-29T13:49:18;3.10;;;2.37;;
7719;SDS011;3902;49.474;8.616;2024-03-29T13:51:46;3.10;;;2.80;;
7719;SDS011;3902;49.474;8.616;2024-03-29T13:54:12;2.50;;;2.20;;
7719;SDS011;3902;49.474;8.616;2024-03-29T13:56:37;2.53;;;2.33;;
7719;SDS011;3902;49.474;8.616;2024-03-29T13:59:03;2.00;;;1.90;;
7719;SDS011;3902;49.474;8.616;2024-03-29T14:01:28;1.80;;;1.70;;
7719;SDS011;3902;49.474;8.616;2024-03-29T14:03:54;2.27;;;2.07;;
7719;SDS011;3902;49.474;8.616;2024-03-29T14:06:20;2.03;;;1.83;;
7719;SDS011;3902;49.474;8.616;2024-03-29T14:08:46;2.37;;;2.17;;
7719;SDS011;3902;49.474;8.616;2024-03-29T14:11:11;1.77;;;1.67;;
7719;SDS011;3902;49.474;8.616;2024-03-29T14:13:39;2.43;;;2.23;;
7719;SDS011;3902;49.474;8.616;2024-03-29T14:16:04;1.93;;;1.77;;
7719;SDS011;3902;49.474;8.616;2024-03-29T14:18:30;2.50;;;2.30;;
7719;SDS011;3902;49.474;8.616;2024-03-29T14:20:56;2.03;;;1.93;;
7719;SDS011;3902;49.474;8.616;2024-03-29T14:23:22;3.00;;;2.10;;
7719;SDS011;3902;49.474;8.616;2024-03-29T14:25:50;2.20;;;2.00;;
7719;SDS011;3902;49.474;8.616;2024-03-29T14:28:16;2.10;;;1.97;;
7719;SDS011;3902;49.474;8.616;2024-03-29T14:30:41;2.90;;;2.70;;
7719;SDS011;3902;49.474;8.616;2024-03-29T14:33:07;2.50;;;2.30;;
7719;SDS011;3902;49.474;8.616;2024-03-29T14:35:33;2.50;;;2.30;;
7719;SDS011;3902;49.474;8.616;2024-03-29T14:38:00;3.00;;;2.50;;
7719;SDS011;3902;49.474;8.616;2024-03-29T14:40:25;2.67;;;2.20;;
7719;SDS011;3902;49.474;8.616;2024-03-29T14:42:54;2.13;;;1.97;;
7719;SDS011;3902;49.474;8.616;2024-03-29T14:45:20;2.17;;;1.97;;
7719;SDS011;3902;49.474;8.616;2024-03-29T14:47:45;2.10;;;1.90;;
7719;SDS011;3902;49.474;8.616;2024-03-29T14:50:11;1.80;;;1.70;;
7719;SDS011;3902;49.474;8.616;2024-03-29T14:52:37;2.07;;;1.90;;
7719;SDS011;3902;49.474;8.616;2024-03-29T14:55:03;1.60;;;1.50;;
7719;SDS011;3902;49.474;8.616;2024-03-29T14:57:29;1.50;;;1.37;;
7719;SDS011;3902;49.474;8.616;2024-03-29T14:59:55;2.70;;;2.00;;
7719;SDS011;3902;49.474;8.616;2024-03-29T15:02:21;2.80;;;2.20;;
7719;SDS011;3902;49.474;8.616;2024-03-29T15:04:47;1.90;;;1.80;;
7719;SDS011;3902;49.474;8.616;2024-03-29T15:07:13;2.00;;;1.60;;
7719;SDS011;3902;49.474;8.616;2024-03-29T15:09:38;2.60;;;1.90;;
7719;SDS011;3902;49.474;8.616;2024-03-29T15:12:04;1.40;;;1.30;;